sensor_id;sensor_type;location;lat;lon;timestamp;temperature;humidity
20658;DHT22;10488;50.846;4.078;2023-06-22T00:00:55;18.80;99.90
20658;DHT22;10488;50.846;4.078;2023-06-22T00:03:22;18.70;99.90
20658;DHT22;10488;50.846;4.078;2023-06-22T00:05:49;18.60;99.90
20658;DHT22;10488;50.846;4.078;2023-06-22T00:08:16;18.80;99.90
20658;DHT22;10488;50.846;4.078;2023-06-22T00:10:42;18.90;99.90
20658;DHT22;10488;50.846;4.078;2023-06-22T00:13:08;18.80;99.90
20658;DHT22;10488;50.846;4.078;2023-06-22T00:15:35;18.70;99.90
20658;DHT22;10488;50.846;4.078;2023-06-22T00:18:01;18.80;99.90
20658;DHT22;10488;50.846;4.078;2023-06-22T00:20:28;18.80;99.90
20658;DHT22;10488;50.846;4.078;2023-06-22T00:22:54;18.90;99.90
20658;DHT22;10488;50.846;4.078;2023-06-22T00:25:20;18.90;99.90
20658;DHT22;10488;50.846;4.078;2023-06-22T00:27:46;18.70;99.90
20658;DHT22;10488;50.846;4.078;2023-06-22T00:30:12;18.40;99.90
20658;DHT22;10488;50.846;4.078;2023-06-22T00:32:37;18.50;99.90
20658;DHT22;10488;50.846;4.078;2023-06-22T00:35:03;18.60;99.90
20658;DHT22;10488;50.846;4.078;2023-06-22T00:37:29;18.70;99.90
20658;DHT22;10488;50.846;4.078;2023-06-22T00:39:56;18.80;99.90
20658;DHT22;10488;50.846;4.078;2023-06-22T00:42:22;18.90;99.90
20658;DHT22;10488;50.846;4.078;2023-06-22T00:44:48;18.50;99.90
20658;DHT22;10488;50.846;4.078;2023-06-22T00:47:15;18.20;99.90
20658;DHT22;10488;50.846;4.078;2023-06-22T00:49:43;18.30;99.90
20658;DHT22;10488;50.846;4.078;2023-06-22T00:52:10;18.40;99.90
20658;DHT22;10488;50.846;4.078;2023-06-22T00:54:42;18.30;99.90
20658;DHT22;10488;50.846;4.078;2023-06-22T00:57:12;18.30;99.90
20658;DHT22;10488;50.846;4.078;2023-06-22T00:59:42;18.50;99.90
20658;DHT22;10488;50.846;4.078;2023-06-22T01:02:08;18.70;99.90
20658;DHT22;10488;50.846;4.078;2023-06-22T01:04:36;18.70;99.90
20658;DHT22;10488;50.846;4.078;2023-06-22T01:12:56;18.50;99.90
20658;DHT22;10488;50.846;4.078;2023-06-22T01:15:29;18.50;99.90
20658;DHT22;10488;50.846;4.078;2023-06-22T01:17:57;18.40;99.90
20658;DHT22;10488;50.846;4.078;2023-06-22T01:20:25;18.50;99.90
20658;DHT22;10488;50.846;4.078;2023-06-22T01:25:28;18.20;99.90
20658;DHT22;10488;50.846;4.078;2023-06-22T01:28:23;18.30;99.90
20658;DHT22;10488;50.846;4.078;2023-06-22T01:30:51;17.90;99.90
20658;DHT22;10488;50.846;4.078;2023-06-22T01:33:29;17.90;99.90
20658;DHT22;10488;50.846;4.078;2023-06-22T01:35:56;17.80;99.90
20658;DHT22;10488;50.846;4.078;2023-06-22T01:38:22;18.10;99.90
20658;DHT22;10488;50.846;4.078;2023-06-22T01:40:49;18.10;99.90
20658;DHT22;10488;50.846;4.078;2023-06-22T01:43:16;18.10;99.90
20658;DHT22;10488;50.846;4.078;2023-06-22T01:45:42;18.20;99.90
20658;DHT22;10488;50.846;4.078;2023-06-22T01:48:08;18.10;99.90
20658;DHT22;10488;50.846;4.078;2023-06-22T01:50:35;18.20;99.90
20658;DHT22;10488;50.846;4.078;2023-06-22T01:53:00;18.20;99.90
20658;DHT22;10488;50.846;4.078;2023-06-22T01:55:26;18.10;99.90
20658;DHT22;10488;50.846;4.078;2023-06-22T01:57:52;18.20;99.90
20658;DHT22;10488;50.846;4.078;2023-06-22T02:00:21;18.40;99.90
20658;DHT22;10488;50.846;4.078;2023-06-22T02:05:34;18.00;99.90
20658;DHT22;10488;50.846;4.078;2023-06-22T02:08:17;18.00;99.90
20658;DHT22;10488;50.846;4.078;2023-06-22T02:10:44;18.10;99.90
20658;DHT22;10488;50.846;4.078;2023-06-22T02:13:11;18.30;99.90
20658;DHT22;10488;50.846;4.078;2023-06-22T02:15:37;18.40;99.90
20658;DHT22;10488;50.846;4.078;2023-06-22T02:18:03;18.50;99.90
20658;DHT22;10488;50.846;4.078;2023-06-22T02:20:30;18.50;99.90
20658;DHT22;10488;50.846;4.078;2023-06-22T02:22:56;18.40;99.90
20658;DHT22;10488;50.846;4.078;2023-06-22T02:25:21;18.20;99.90
20658;DHT22;10488;50.846;4.078;2023-06-22T02:27:47;17.90;99.90
20658;DHT22;10488;50.846;4.078;2023-06-22T02:30:13;17.60;99.90
20658;DHT22;10488;50.846;4.078;2023-06-22T02:32:40;17.80;99.90
20658;DHT22;10488;50.846;4.078;2023-06-22T02:35:10;18.00;99.90
20658;DHT22;10488;50.846;4.078;2023-06-22T02:37:37;18.10;99.90
20658;DHT22;10488;50.846;4.078;2023-06-22T02:40:08;18.10;99.90
20658;DHT22;10488;50.846;4.078;2023-06-22T02:42:37;18.10;99.90
20658;DHT22;10488;50.846;4.078;2023-06-22T02:45:03;18.20;99.90
20658;DHT22;10488;50.846;4.078;2023-06-22T02:47:29;18.30;99.90
20658;DHT22;10488;50.846;4.078;2023-06-22T02:49:54;18.30;99.90
20658;DHT22;10488;50.846;4.078;2023-06-22T02:52:20;18.20;99.90
20658;DHT22;10488;50.846;4.078;2023-06-22T02:54:46;18.20;99.90
20658;DHT22;10488;50.846;4.078;2023-06-22T02:57:12;18.00;99.90
20658;DHT22;10488;50.846;4.078;2023-06-22T02:59:39;18.00;99.90
20658;DHT22;10488;50.846;4.078;2023-06-22T03:02:06;18.10;99.90
20658;DHT22;10488;50.846;4.078;2023-06-22T03:04:32;18.30;99.90
20658;DHT22;10488;50.846;4.078;2023-06-22T03:06:57;18.00;99.90
20658;DHT22;10488;50.846;4.078;2023-06-22T03:09:27;17.90;99.90
20658;DHT22;10488;50.846;4.078;2023-06-22T03:11:54;17.60;99.90
20658;DHT22;10488;50.846;4.078;2023-06-22T03:14:20;17.50;99.90
20658;DHT22;10488;50.846;4.078;2023-06-22T03:16:46;17.50;99.90
20658;DHT22;10488;50.846;4.078;2023-06-22T03:19:11;17.60;99.90
20658;DHT22;10488;50.846;4.078;2023-06-22T03:21:38;17.60;99.90
20658;DHT22;10488;50.846;4.078;2023-06-22T03:24:07;17.60;99.90
20658;DHT22;10488;50.846;4.078;2023-06-22T03:26:33;17.70;99.90
20658;DHT22;10488;50.846;4.078;2023-06-22T03:28:58;17.80;99.90
20658;DHT22;10488;50.846;4.078;2023-06-22T03:31:24;17.80;99.90
20658;DHT22;10488;50.846;4.078;2023-06-22T03:33:50;17.70;99.90
20658;DHT22;10488;50.846;4.078;2023-06-22T03:36:17;17.70;99.90
20658;DHT22;10488;50.846;4.078;2023-06-22T03:38:46;17.70;99.90
20658;DHT22;10488;50.846;4.078;2023-06-22T03:41:12;17.70;99.90
20658;DHT22;10488;50.846;4.078;2023-06-22T03:43:38;17.60;99.90
20658;DHT22;10488;50.846;4.078;2023-06-22T03:46:03;17.60;99.90
20658;DHT22;10488;50.846;4.078;2023-06-22T03:48:29;17.40;99.90
20658;DHT22;10488;50.846;4.078;2023-06-22T03:50:55;17.40;99.90
20658;DHT22;10488;50.846;4.078;2023-06-22T03:53:20;17.50;99.90
20658;DHT22;10488;50.846;4.078;2023-06-22T03:55:50;17.30;99.90
20658;DHT22;10488;50.846;4.078;2023-06-22T03:58:18;17.20;99.90
20658;DHT22;10488;50.846;4.078;2023-06-22T04:00:45;17.40;99.90
20658;DHT22;10488;50.846;4.078;2023-06-22T04:03:11;17.30;99.90
20658;DHT22;10488;50.846;4.078;2023-06-22T04:05:38;17.20;99.90
20658;DHT22;10488;50.846;4.078;2023-06-22T04:08:05;17.40;99.90
20658;DHT22;10488;50.846;4.078;2023-06-22T04:10:30;17.60;99.90
20658;DHT22;10488;50.846;4.078;2023-06-22T04:12:56;17.80;99.90
20658;DHT22;10488;50.846;4.078;2023-06-22T04:15:22;17.70;99.90
20658;DHT22;10488;50.846;4.078;2023-06-22T04:17:48;17.80;99.90
20658;DHT22;10488;50.846;4.078;2023-06-22T04:20:13;18.00;99.90
20658;DHT22;10488;50.846;4.078;2023-06-22T04:22:39;18.30;99.90
20658;DHT22;10488;50.846;4.078;2023-06-22T04:25:06;18.50;99.90
20658;DHT22;10488;50.846;4.078;2023-06-22T04:27:33;18.50;99.90
20658;DHT22;10488;50.846;4.078;2023-06-22T04:30:08;18.20;99.90
20658;DHT22;10488;50.846;4.078;2023-06-22T04:32:35;18.00;99.90
20658;DHT22;10488;50.846;4.078;2023-06-22T04:35:04;18.20;99.90
20658;DHT22;10488;50.846;4.078;2023-06-22T04:37:30;18.20;99.90
20658;DHT22;10488;50.846;4.078;2023-06-22T04:39:56;18.30;99.90
20658;DHT22;10488;50.846;4.078;2023-06-22T04:42:22;18.50;99.90
20658;DHT22;10488;50.846;4.078;2023-06-22T04:44:48;18.70;99.90
20658;DHT22;10488;50.846;4.078;2023-06-22T04:47:13;18.50;99.90
20658;DHT22;10488;50.846;4.078;2023-06-22T04:49:39;18.50;99.90
20658;DHT22;10488;50.846;4.078;2023-06-22T04:52:10;18.70;99.90
20658;DHT22;10488;50.846;4.078;2023-06-22T04:54:38;18.90;99.90
20658;DHT22;10488;50.846;4.078;2023-06-22T04:57:07;18.90;99.90
20658;DHT22;10488;50.846;4.078;2023-06-22T04:59:37;18.80;99.90
20658;DHT22;10488;50.846;4.078;2023-06-22T05:02:04;18.90;99.90
20658;DHT22;10488;50.846;4.078;2023-06-22T05:04:30;19.10;99.90
20658;DHT22;10488;50.846;4.078;2023-06-22T05:07:01;19.40;99.90
20658;DHT22;10488;50.846;4.078;2023-06-22T05:09:28;19.40;99.90
20658;DHT22;10488;50.846;4.078;2023-06-22T05:11:54;19.50;99.90
20658;DHT22;10488;50.846;4.078;2023-06-22T05:14:22;19.50;99.90
20658;DHT22;10488;50.846;4.078;2023-06-22T05:16:48;19.20;99.90
20658;DHT22;10488;50.846;4.078;2023-06-22T05:19:14;18.90;99.90
20658;DHT22;10488;50.846;4.078;2023-06-22T05:21:39;19.00;99.90
20658;DHT22;10488;50.846;4.078;2023-06-22T05:24:05;18.90;99.90
20658;DHT22;10488;50.846;4.078;2023-06-22T05:26:32;18.90;99.90
20658;DHT22;10488;50.846;4.078;2023-06-22T05:28:59;18.90;99.90
20658;DHT22;10488;50.846;4.078;2023-06-22T05:31:26;19.10;99.90
20658;DHT22;10488;50.846;4.078;2023-06-22T05:33:52;19.10;99.90
20658;DHT22;10488;50.846;4.078;2023-06-22T05:36:19;19.00;99.90
20658;DHT22;10488;50.846;4.078;2023-06-22T05:38:55;19.10;99.90
20658;DHT22;10488;50.846;4.078;2023-06-22T05:41:21;19.20;99.90
20658;DHT22;10488;50.846;4.078;2023-06-22T05:43:47;19.00;99.90
20658;DHT22;10488;50.846;4.078;2023-06-22T05:46:13;19.00;99.90
20658;DHT22;10488;50.846;4.078;2023-06-22T05:48:38;19.10;99.90
20658;DHT22;10488;50.846;4.078;2023-06-22T05:51:04;19.30;99.90
20658;DHT22;10488;50.846;4.078;2023-06-22T05:53:30;19.50;99.90
20658;DHT22;10488;50.846;4.078;2023-06-22T05:55:55;19.60;99.90
20658;DHT22;10488;50.846;4.078;2023-06-22T05:58:21;19.50;99.90
20658;DHT22;10488;50.846;4.078;2023-06-22T06:00:47;19.50;99.90
20658;DHT22;10488;50.846;4.078;2023-06-22T06:03:13;19.50;99.90
20658;DHT22;10488;50.846;4.078;2023-06-22T06:05:42;19.60;99.90
20658;DHT22;10488;50.846;4.078;2023-06-22T06:08:08;19.80;99.90
20658;DHT22;10488;50.846;4.078;2023-06-22T06:10:36;19.90;99.90
20658;DHT22;10488;50.846;4.078;2023-06-22T06:13:02;19.80;99.90
20658;DHT22;10488;50.846;4.078;2023-06-22T06:15:29;20.00;99.90
20658;DHT22;10488;50.846;4.078;2023-06-22T06:17:55;20.00;99.90
20658;DHT22;10488;50.846;4.078;2023-06-22T06:20:23;19.90;99.90
20658;DHT22;10488;50.846;4.078;2023-06-22T06:22:50;19.90;99.90
20658;DHT22;10488;50.846;4.078;2023-06-22T06:25:16;20.00;99.90
20658;DHT22;10488;50.846;4.078;2023-06-22T06:27:46;20.00;99.90
20658;DHT22;10488;50.846;4.078;2023-06-22T06:30:12;20.10;99.90
20658;DHT22;10488;50.846;4.078;2023-06-22T06:32:39;20.30;99.90
20658;DHT22;10488;50.846;4.078;2023-06-22T06:35:09;20.50;99.90
20658;DHT22;10488;50.846;4.078;2023-06-22T06:37:40;20.40;99.90
20658;DHT22;10488;50.846;4.078;2023-06-22T06:40:07;20.80;99.90
20658;DHT22;10488;50.846;4.078;2023-06-22T06:42:40;20.80;99.90
20658;DHT22;10488;50.846;4.078;2023-06-22T06:47:36;21.20;99.90
20658;DHT22;10488;50.846;4.078;2023-06-22T06:50:03;21.20;99.90
20658;DHT22;10488;50.846;4.078;2023-06-22T06:52:29;21.10;99.90
20658;DHT22;10488;50.846;4.078;2023-06-22T06:54:55;20.60;99.90
20658;DHT22;10488;50.846;4.078;2023-06-22T06:57:20;20.60;99.90
20658;DHT22;10488;50.846;4.078;2023-06-22T06:59:48;20.40;99.90
20658;DHT22;10488;50.846;4.078;2023-06-22T07:02:14;20.40;99.90
20658;DHT22;10488;50.846;4.078;2023-06-22T07:04:40;20.50;99.90
20658;DHT22;10488;50.846;4.078;2023-06-22T07:07:05;20.30;99.90
20658;DHT22;10488;50.846;4.078;2023-06-22T07:09:31;20.60;99.90
20658;DHT22;10488;50.846;4.078;2023-06-22T07:11:57;20.60;99.90
20658;DHT22;10488;50.846;4.078;2023-06-22T07:14:22;20.90;99.90
20658;DHT22;10488;50.846;4.078;2023-06-22T07:16:48;21.00;99.90
20658;DHT22;10488;50.846;4.078;2023-06-22T07:19:14;21.10;99.90
20658;DHT22;10488;50.846;4.078;2023-06-22T07:21:39;21.40;99.90
20658;DHT22;10488;50.846;4.078;2023-06-22T07:24:06;21.50;99.90
20658;DHT22;10488;50.846;4.078;2023-06-22T07:26:32;21.50;99.90
20658;DHT22;10488;50.846;4.078;2023-06-22T07:28:58;21.60;99.90
20658;DHT22;10488;50.846;4.078;2023-06-22T07:31:27;21.60;99.90
20658;DHT22;10488;50.846;4.078;2023-06-22T07:33:52;21.30;99.90
20658;DHT22;10488;50.846;4.078;2023-06-22T07:36:18;21.20;99.90
20658;DHT22;10488;50.846;4.078;2023-06-22T07:38:44;21.30;99.90
20658;DHT22;10488;50.846;4.078;2023-06-22T07:41:10;21.50;99.90
20658;DHT22;10488;50.846;4.078;2023-06-22T07:43:35;21.60;99.90
20658;DHT22;10488;50.846;4.078;2023-06-22T07:46:05;21.60;99.90
20658;DHT22;10488;50.846;4.078;2023-06-22T07:48:31;21.50;99.90
20658;DHT22;10488;50.846;4.078;2023-06-22T07:50:57;21.80;99.90
20658;DHT22;10488;50.846;4.078;2023-06-22T07:53:23;21.60;99.90
20658;DHT22;10488;50.846;4.078;2023-06-22T07:55:49;21.40;99.90
20658;DHT22;10488;50.846;4.078;2023-06-22T07:58:15;21.60;99.90
20658;DHT22;10488;50.846;4.078;2023-06-22T08:00:41;21.60;99.90
20658;DHT22;10488;50.846;4.078;2023-06-22T08:03:07;21.70;99.90
20658;DHT22;10488;50.846;4.078;2023-06-22T08:05:32;21.70;99.90
20658;DHT22;10488;50.846;4.078;2023-06-22T08:07:58;21.50;99.90
20658;DHT22;10488;50.846;4.078;2023-06-22T08:10:24;21.70;99.90
20658;DHT22;10488;50.846;4.078;2023-06-22T08:12:50;21.60;99.90
20658;DHT22;10488;50.846;4.078;2023-06-22T08:15:17;21.60;99.90
20658;DHT22;10488;50.846;4.078;2023-06-22T08:17:44;21.70;99.90
20658;DHT22;10488;50.846;4.078;2023-06-22T08:20:11;21.40;99.90
20658;DHT22;10488;50.846;4.078;2023-06-22T08:22:41;21.60;99.90
20658;DHT22;10488;50.846;4.078;2023-06-22T08:25:07;21.60;99.90
20658;DHT22;10488;50.846;4.078;2023-06-22T08:27:33;21.50;99.90
20658;DHT22;10488;50.846;4.078;2023-06-22T08:29:59;21.50;99.90
20658;DHT22;10488;50.846;4.078;2023-06-22T08:32:28;21.40;99.90
20658;DHT22;10488;50.846;4.078;2023-06-22T08:34:55;21.50;99.90
20658;DHT22;10488;50.846;4.078;2023-06-22T08:37:21;21.20;99.90
20658;DHT22;10488;50.846;4.078;2023-06-22T08:39:49;21.20;99.90
20658;DHT22;10488;50.846;4.078;2023-06-22T08:42:15;21.30;99.90
20658;DHT22;10488;50.846;4.078;2023-06-22T08:44:41;21.50;99.90
20658;DHT22;10488;50.846;4.078;2023-06-22T08:47:07;21.50;99.90
20658;DHT22;10488;50.846;4.078;2023-06-22T08:49:32;21.70;99.90
20658;DHT22;10488;50.846;4.078;2023-06-22T08:51:58;21.90;99.90
20658;DHT22;10488;50.846;4.078;2023-06-22T08:54:24;21.90;99.90
20658;DHT22;10488;50.846;4.078;2023-06-22T08:56:49;21.50;99.90
20658;DHT22;10488;50.846;4.078;2023-06-22T08:59:15;21.40;99.90
20658;DHT22;10488;50.846;4.078;2023-06-22T09:01:41;21.60;99.90
20658;DHT22;10488;50.846;4.078;2023-06-22T09:04:14;21.60;99.90
20658;DHT22;10488;50.846;4.078;2023-06-22T09:06:40;21.60;99.90
20658;DHT22;10488;50.846;4.078;2023-06-22T09:09:11;21.50;99.90
20658;DHT22;10488;50.846;4.078;2023-06-22T09:11:37;21.60;99.90
20658;DHT22;10488;50.846;4.078;2023-06-22T09:14:03;21.30;99.90
20658;DHT22;10488;50.846;4.078;2023-06-22T09:16:29;21.20;99.90
20658;DHT22;10488;50.846;4.078;2023-06-22T09:18:55;21.30;99.90
20658;DHT22;10488;50.846;4.078;2023-06-22T09:21:21;21.30;99.90
20658;DHT22;10488;50.846;4.078;2023-06-22T09:23:47;21.40;99.90
20658;DHT22;10488;50.846;4.078;2023-06-22T09:26:17;21.40;99.90
20658;DHT22;10488;50.846;4.078;2023-06-22T09:28:42;21.50;99.90
20658;DHT22;10488;50.846;4.078;2023-06-22T09:31:08;21.50;99.90
20658;DHT22;10488;50.846;4.078;2023-06-22T09:33:33;21.60;99.90
20658;DHT22;10488;50.846;4.078;2023-06-22T09:35:59;21.60;99.90
20658;DHT22;10488;50.846;4.078;2023-06-22T09:38:25;21.50;99.90
20658;DHT22;10488;50.846;4.078;2023-06-22T09:40:50;21.50;99.90
20658;DHT22;10488;50.846;4.078;2023-06-22T09:43:17;21.30;99.90
20658;DHT22;10488;50.846;4.078;2023-06-22T09:45:42;21.30;99.90
20658;DHT22;10488;50.846;4.078;2023-06-22T09:48:08;21.10;99.90
20658;DHT22;10488;50.846;4.078;2023-06-22T09:50:35;21.30;99.90
20658;DHT22;10488;50.846;4.078;2023-06-22T09:53:02;21.00;99.90
20658;DHT22;10488;50.846;4.078;2023-06-22T09:55:27;20.60;99.90
20658;DHT22;10488;50.846;4.078;2023-06-22T09:57:53;20.50;99.90
20658;DHT22;10488;50.846;4.078;2023-06-22T10:00:20;20.50;99.90
20658;DHT22;10488;50.846;4.078;2023-06-22T10:02:47;20.70;99.90
20658;DHT22;10488;50.846;4.078;2023-06-22T10:05:13;20.70;99.90
20658;DHT22;10488;50.846;4.078;2023-06-22T10:07:39;20.60;99.90
20658;DHT22;10488;50.846;4.078;2023-06-22T10:10:08;20.50;99.90
20658;DHT22;10488;50.846;4.078;2023-06-22T10:12:34;20.40;99.90
20658;DHT22;10488;50.846;4.078;2023-06-22T10:15:00;20.20;99.90
20658;DHT22;10488;50.846;4.078;2023-06-22T10:17:26;20.20;99.90
20658;DHT22;10488;50.846;4.078;2023-06-22T10:19:51;20.20;99.90
20658;DHT22;10488;50.846;4.078;2023-06-22T10:22:17;19.90;99.90
20658;DHT22;10488;50.846;4.078;2023-06-22T10:24:43;19.40;99.90
20658;DHT22;10488;50.846;4.078;2023-06-22T10:27:13;19.30;99.90
20658;DHT22;10488;50.846;4.078;2023-06-22T10:29:39;19.20;99.90
20658;DHT22;10488;50.846;4.078;2023-06-22T10:32:05;19.10;99.90
20658;DHT22;10488;50.846;4.078;2023-06-22T10:34:31;18.70;99.90
20658;DHT22;10488;50.846;4.078;2023-06-22T10:36:56;18.50;99.90
20658;DHT22;10488;50.846;4.078;2023-06-22T10:39:22;18.30;99.90
20658;DHT22;10488;50.846;4.078;2023-06-22T10:41:48;18.20;99.90
20658;DHT22;10488;50.846;4.078;2023-06-22T10:44:13;18.20;99.90
20658;DHT22;10488;50.846;4.078;2023-06-22T10:46:39;18.20;99.90
20658;DHT22;10488;50.846;4.078;2023-06-22T10:49:05;17.60;99.90
20658;DHT22;10488;50.846;4.078;2023-06-22T10:51:30;17.50;99.90
20658;DHT22;10488;50.846;4.078;2023-06-22T10:53:57;17.40;99.90
20658;DHT22;10488;50.846;4.078;2023-06-22T10:56:23;17.30;99.90
20658;DHT22;10488;50.846;4.078;2023-06-22T10:58:48;17.40;99.90
20658;DHT22;10488;50.846;4.078;2023-06-22T11:01:14;17.60;99.90
20658;DHT22;10488;50.846;4.078;2023-06-22T11:03:40;17.80;99.90
20658;DHT22;10488;50.846;4.078;2023-06-22T11:06:05;17.80;99.90
20658;DHT22;10488;50.846;4.078;2023-06-22T11:08:31;18.00;99.90
20658;DHT22;10488;50.846;4.078;2023-06-22T11:10:56;18.20;99.90
20658;DHT22;10488;50.846;4.078;2023-06-22T11:13:22;18.30;99.90
20658;DHT22;10488;50.846;4.078;2023-06-22T11:15:48;18.50;99.90
20658;DHT22;10488;50.846;4.078;2023-06-22T11:18:13;18.20;99.90
20658;DHT22;10488;50.846;4.078;2023-06-22T11:20:39;18.40;99.90
20658;DHT22;10488;50.846;4.078;2023-06-22T11:23:06;18.60;99.90
20658;DHT22;10488;50.846;4.078;2023-06-22T11:25:32;18.40;99.90
20658;DHT22;10488;50.846;4.078;2023-06-22T11:28:04;18.60;99.90
20658;DHT22;10488;50.846;4.078;2023-06-22T11:30:30;18.70;99.90
20658;DHT22;10488;50.846;4.078;2023-06-22T11:32:59;18.90;99.90
20658;DHT22;10488;50.846;4.078;2023-06-22T11:35:25;19.10;99.90
20658;DHT22;10488;50.846;4.078;2023-06-22T11:37:51;19.20;99.90
20658;DHT22;10488;50.846;4.078;2023-06-22T11:40:16;19.40;99.90
20658;DHT22;10488;50.846;4.078;2023-06-22T11:42:43;19.50;99.90
20658;DHT22;10488;50.846;4.078;2023-06-22T11:45:09;19.40;99.90
20658;DHT22;10488;50.846;4.078;2023-06-22T11:47:35;19.70;99.90
20658;DHT22;10488;50.846;4.078;2023-06-22T11:50:02;19.20;99.90
20658;DHT22;10488;50.846;4.078;2023-06-22T11:52:28;19.10;99.90
20658;DHT22;10488;50.846;4.078;2023-06-22T11:54:54;19.00;99.90
20658;DHT22;10488;50.846;4.078;2023-06-22T11:57:19;18.90;99.90
20658;DHT22;10488;50.846;4.078;2023-06-22T11:59:45;19.00;99.90
20658;DHT22;10488;50.846;4.078;2023-06-22T12:02:11;19.20;99.90
20658;DHT22;10488;50.846;4.078;2023-06-22T12:04:36;19.30;99.90
20658;DHT22;10488;50.846;4.078;2023-06-22T12:07:03;19.30;99.90
20658;DHT22;10488;50.846;4.078;2023-06-22T12:09:29;19.20;99.90
20658;DHT22;10488;50.846;4.078;2023-06-22T12:11:54;19.50;99.90
20658;DHT22;10488;50.846;4.078;2023-06-22T12:14:20;19.80;99.90
20658;DHT22;10488;50.846;4.078;2023-06-22T12:16:46;19.70;99.90
20658;DHT22;10488;50.846;4.078;2023-06-22T12:19:11;19.70;99.90
20658;DHT22;10488;50.846;4.078;2023-06-22T12:21:37;19.70;99.90
20658;DHT22;10488;50.846;4.078;2023-06-22T12:24:03;19.70;99.90
20658;DHT22;10488;50.846;4.078;2023-06-22T12:26:29;19.80;99.90
20658;DHT22;10488;50.846;4.078;2023-06-22T12:28:54;19.80;99.90
20658;DHT22;10488;50.846;4.078;2023-06-22T12:31:20;19.70;99.90
20658;DHT22;10488;50.846;4.078;2023-06-22T12:33:46;19.60;99.90
20658;DHT22;10488;50.846;4.078;2023-06-22T12:36:11;19.50;99.90
20658;DHT22;10488;50.846;4.078;2023-06-22T12:38:37;19.30;99.90
20658;DHT22;10488;50.846;4.078;2023-06-22T12:41:02;19.10;99.90
20658;DHT22;10488;50.846;4.078;2023-06-22T12:43:28;19.10;99.90
20658;DHT22;10488;50.846;4.078;2023-06-22T12:45:53;19.10;99.90
20658;DHT22;10488;50.846;4.078;2023-06-22T12:48:19;18.90;99.90
20658;DHT22;10488;50.846;4.078;2023-06-22T12:50:45;18.90;99.90
20658;DHT22;10488;50.846;4.078;2023-06-22T12:53:13;19.10;99.90
20658;DHT22;10488;50.846;4.078;2023-06-22T12:55:38;19.30;99.90
20658;DHT22;10488;50.846;4.078;2023-06-22T12:58:04;19.00;99.90
20658;DHT22;10488;50.846;4.078;2023-06-22T13:00:30;19.10;99.90
20658;DHT22;10488;50.846;4.078;2023-06-22T13:02:55;18.80;99.90
20658;DHT22;10488;50.846;4.078;2023-06-22T13:05:21;19.10;99.90
20658;DHT22;10488;50.846;4.078;2023-06-22T13:07:47;18.90;99.90
20658;DHT22;10488;50.846;4.078;2023-06-22T13:10:12;18.60;99.90
20658;DHT22;10488;50.846;4.078;2023-06-22T13:12:38;18.70;99.90
20658;DHT22;10488;50.846;4.078;2023-06-22T13:15:04;18.60;99.90
20658;DHT22;10488;50.846;4.078;2023-06-22T13:17:30;18.50;99.90
20658;DHT22;10488;50.846;4.078;2023-06-22T13:19:55;18.50;99.90
20658;DHT22;10488;50.846;4.078;2023-06-22T13:22:34;18.50;99.90
20658;DHT22;10488;50.846;4.078;2023-06-22T13:25:06;18.50;99.90
20658;DHT22;10488;50.846;4.078;2023-06-22T13:27:32;18.60;99.90
20658;DHT22;10488;50.846;4.078;2023-06-22T13:29:58;18.50;99.90
20658;DHT22;10488;50.846;4.078;2023-06-22T13:32:23;18.50;99.90
20658;DHT22;10488;50.846;4.078;2023-06-22T13:34:49;18.40;99.90
20658;DHT22;10488;50.846;4.078;2023-06-22T13:37:15;18.30;99.90
20658;DHT22;10488;50.846;4.078;2023-06-22T13:39:41;18.30;99.90
20658;DHT22;10488;50.846;4.078;2023-06-22T13:42:07;18.30;99.90
20658;DHT22;10488;50.846;4.078;2023-06-22T13:44:32;18.40;99.90
20658;DHT22;10488;50.846;4.078;2023-06-22T13:46:58;18.50;99.90
20658;DHT22;10488;50.846;4.078;2023-06-22T13:49:24;18.20;99.90
20658;DHT22;10488;50.846;4.078;2023-06-22T13:51:50;18.10;99.90
20658;DHT22;10488;50.846;4.078;2023-06-22T13:54:16;18.20;99.90
20658;DHT22;10488;50.846;4.078;2023-06-22T13:56:42;18.30;99.90
20658;DHT22;10488;50.846;4.078;2023-06-22T13:59:07;18.10;99.90
20658;DHT22;10488;50.846;4.078;2023-06-22T14:01:38;18.20;99.90
20658;DHT22;10488;50.846;4.078;2023-06-22T14:04:05;18.30;99.90
20658;DHT22;10488;50.846;4.078;2023-06-22T14:06:31;18.40;99.90
20658;DHT22;10488;50.846;4.078;2023-06-22T14:08:56;18.40;99.90
20658;DHT22;10488;50.846;4.078;2023-06-22T14:11:22;18.50;99.90
20658;DHT22;10488;50.846;4.078;2023-06-22T14:13:48;18.60;99.90
20658;DHT22;10488;50.846;4.078;2023-06-22T14:16:13;18.80;99.90
20658;DHT22;10488;50.846;4.078;2023-06-22T14:18:39;18.80;99.90
20658;DHT22;10488;50.846;4.078;2023-06-22T14:21:05;18.80;99.90
20658;DHT22;10488;50.846;4.078;2023-06-22T14:23:30;18.60;99.90
20658;DHT22;10488;50.846;4.078;2023-06-22T14:25:56;18.80;99.90
20658;DHT22;10488;50.846;4.078;2023-06-22T14:28:22;18.80;99.90
20658;DHT22;10488;50.846;4.078;2023-06-22T14:30:47;18.70;99.90
20658;DHT22;10488;50.846;4.078;2023-06-22T14:33:13;18.80;99.90
20658;DHT22;10488;50.846;4.078;2023-06-22T14:35:39;18.90;99.90
20658;DHT22;10488;50.846;4.078;2023-06-22T14:38:04;19.10;99.90
20658;DHT22;10488;50.846;4.078;2023-06-22T14:40:30;19.00;99.90
20658;DHT22;10488;50.846;4.078;2023-06-22T14:42:56;19.20;99.90
20658;DHT22;10488;50.846;4.078;2023-06-22T14:45:23;19.20;99.90
20658;DHT22;10488;50.846;4.078;2023-06-22T14:47:48;19.20;99.90
20658;DHT22;10488;50.846;4.078;2023-06-22T14:50:14;18.80;99.90
20658;DHT22;10488;50.846;4.078;2023-06-22T14:52:40;18.70;99.90
20658;DHT22;10488;50.846;4.078;2023-06-22T14:55:06;18.70;99.90
20658;DHT22;10488;50.846;4.078;2023-06-22T14:57:32;18.80;99.90
20658;DHT22;10488;50.846;4.078;2023-06-22T14:59:57;18.80;99.90
20658;DHT22;10488;50.846;4.078;2023-06-22T15:02:23;18.90;99.90
20658;DHT22;10488;50.846;4.078;2023-06-22T15:04:49;19.10;99.90
20658;DHT22;10488;50.846;4.078;2023-06-22T15:07:14;19.00;99.90
20658;DHT22;10488;50.846;4.078;2023-06-22T15:09:40;19.10;99.90
20658;DHT22;10488;50.846;4.078;2023-06-22T15:12:08;18.90;99.90
20658;DHT22;10488;50.846;4.078;2023-06-22T15:14:40;19.00;99.90
20658;DHT22;10488;50.846;4.078;2023-06-22T15:17:07;19.00;99.90
20658;DHT22;10488;50.846;4.078;2023-06-22T15:19:37;19.10;99.90
20658;DHT22;10488;50.846;4.078;2023-06-22T15:22:05;19.40;99.90
20658;DHT22;10488;50.846;4.078;2023-06-22T15:24:31;19.60;99.90
20658;DHT22;10488;50.846;4.078;2023-06-22T15:26:57;19.70;99.90
20658;DHT22;10488;50.846;4.078;2023-06-22T15:29:23;19.60;99.90
20658;DHT22;10488;50.846;4.078;2023-06-22T15:31:49;19.70;99.90
20658;DHT22;10488;50.846;4.078;2023-06-22T15:34:14;19.50;99.90
20658;DHT22;10488;50.846;4.078;2023-06-22T15:36:40;19.30;99.90
20658;DHT22;10488;50.846;4.078;2023-06-22T15:39:06;19.40;99.90